Jordan, MT

7:41 AM MST on February 26, 2017 (GMT -0700)
Wokal-Glasgow International | | Change Station
Active Advisory: Winter Weather Advisory

Elev 2293 ft 48.21 °N, 106.61 °W | Updated 6 minutes ago

Overcast
Overcast
17 °F
Feels Like 10 °F
N
5
Wind Variable Wind from NNE

Today
High -- | Low -- °F
--% Chance of Precip.
Yesterday
High -- | Low -- °F
Precip. -- in
Pressure 29.70 in
Visibility 2.5 miles
Clouds Mostly Cloudy 2700 ft
Overcast 3400 ft
Windchill 10 °F
Dew Point 13 °F
Humidity 84%
Rainfall 0.01 in
Snow Depth Not available.
6:52 AM 5:48 PM
Waning Crescent, 0% visible
SPECI KGGW 261435Z AUTO 02004KT 2 1/2SM -SN BR BKN027 OVC034 M08/M11 A2970 RMK AO2 P0000 T10831106
Pressure 29.70 in
Visibility 2.5 miles
Clouds Mostly Cloudy 2700 ft
Overcast 3400 ft
Windchill 10 °F
Dew Point 13 °F
Humidity 84%
Rainfall 0.01 in
Snow Depth Not available.
6:52 AM 5:48 PM
Waning Crescent, 0% visible
SPECI KGGW 261435Z AUTO 02004KT 2 1/2SM -SN BR BKN027 OVC034 M08/M11 A2970 RMK AO2 P0000 T10831106

Get Your Daily Forecast Email!

Thanks for signing up!

Be on the lookout for a verification email in your inbox.

You'll start receiving the daily forecast at 8 AM.

×

10-Day Weather Forecast

Almanac

Astronomy

Feb. 26, 2017 Rise Set
Actual Time
Civil Twilight
Nautical Twilight
Astronomical Twilight
Moon
Length of Visible Light
Length of Day
Tomorrow will be .
, % of the Moon is Illuminated

Today's Extremes

State Highs State Lows

Community

WunderPhotos

Upload Photos

1,962,540 photos uploaded!

WunderBlog® & News

Nearby

Air Quality

  Air Quality AQ Index Pollutant
Not available.

Snow Depth

Station Depth Elevation

Earthquake Activity

City Distance Mag. Time & Date
Minimum magnitude displayed is 2.5.

Coastal Water Temperatures

Place Temperature

Stations

Nearby Weather Stations

Station Location Temp. Windchill Dew Point Humidity Wind Precip. Elev Updated Type
                   

Watches & Warnings

Winter Weather Advisory
Issued: 3:12 AM MST Feb. 26, 2017 – National Weather Service

... Winter Weather Advisory in effect from 8 PM this evening to
9 am MST Monday...

The National Weather Service in Glasgow has issued a Winter
Weather Advisory for snow... which is in effect from 8 PM this
evening to 9 am MST Monday.

* Accumulations... snow accumulation of 2 to 4 inches.

* Timing... snow will spread east this evening, ending Monday
morning.

* Impacts... the snow will create snow covered roads and limited
visibilities.


Precautionary/preparedness actions...

A Winter Weather Advisory for snow means that periods of snow
will cause primarily travel difficulties. Be prepared for snow
covered roads and limited visibilities, and use caution while
driving.